Time;durP1;ratioP1;P1;durP2;ratioP2;P2;SDS_P1;SDS_P2;PMS_P1;PMS_P2;Temp;Humidity;BMP_temperature;BMP_pressure;BME280_temperature;BME280_humidity;BME280_pressure;Samples;Min_cycle;Max_cycle;Signal;HPM_P1;HPM_P2
2023/10/09 00:01:04;;;;;;;14.82;3.08;;;;;;;18.06;52.60;95704.13;5020264;28;20033;-78
2023/10/09 00:03:29;;;;;;;19.02;3.00;;;;;;;18.00;52.39;95689.25;5004414;28;20033;-78
2023/10/09 00:05:55;;;;;;;13.75;2.67;;;;;;;18.10;52.55;95707.75;5021100;28;20036;-78
2023/10/09 00:08:22;;;;;;;12.52;3.10;;;;;;;18.18;52.35;95723.13;5012069;28;20063;-78
2023/10/09 00:10:54;;;;;;;14.82;3.00;;;;;;;17.93;52.48;95688.88;5015808;28;20057;-78
2023/10/09 00:13:30;;;;;;;11.35;2.78;;;;;;;17.83;52.42;95691.81;5027370;28;20030;-78
2023/10/09 00:16:08;;;;;;;13.85;2.72;;;;;;;17.95;53.07;95735.78;5014743;28;20040;-78
2023/10/09 00:18:34;;;;;;;17.42;3.45;;;;;;;17.96;52.88;95725.84;5016099;28;20523;-78
2023/10/09 00:21:01;;;;;;;20.45;2.65;;;;;;;18.08;52.63;95736.78;5007689;28;20038;-78
2023/10/09 00:23:31;;;;;;;10.23;2.30;;;;;;;18.07;52.96;95732.53;5021880;28;20041;-78
2023/10/09 00:26:10;;;;;;;10.18;2.75;;;;;;;17.66;52.81;95687.94;5007333;28;20664;-78
2023/10/09 00:28:37;;;;;;;13.13;2.78;;;;;;;17.95;52.63;95724.25;5008188;28;20049;-78
2023/10/09 00:31:06;;;;;;;9.38;2.67;;;;;;;17.87;53.22;95724.97;5029486;28;20052;-76
2023/10/09 00:33:32;;;;;;;12.95;2.33;;;;;;;17.67;53.14;95719.03;5018566;28;20570;-76
2023/10/09 00:36:09;;;;;;;10.68;2.35;;;;;;;17.52;53.17;95689.84;5020597;28;20038;-76
2023/10/09 00:38:51;;;;;;;11.50;2.53;;;;;;;17.52;53.40;95726.59;5015558;28;20045;-75
2023/10/09 00:41:20;;;;;;;10.07;2.08;;;;;;;17.35;53.71;95684.34;4997195;28;20033;-76
2023/10/09 00:43:49;;;;;;;10.43;2.53;;;;;;;17.51;53.58;95720.44;5018648;28;20061;-76
2023/10/09 00:48:49;;;;;;;8.70;2.08;;;;;;;17.39;53.56;95714.03;5019732;28;20046;-76
2023/10/09 00:51:18;;;;;;;12.60;2.20;;;;;;;17.22;54.05;95720.03;5012022;28;20037;-77
2023/10/09 00:53:58;;;;;;;6.20;2.15;;;;;;;17.13;54.06;95719.16;5016081;28;20060;-75
2023/10/09 00:59:15;;;;;;;14.23;2.17;;;;;;;17.13;54.39;95736.03;5017260;28;20129;-76
2023/10/09 01:01:55;;;;;;;10.70;2.28;;;;;;;17.20;53.96;95732.94;4998110;28;20338;-76
2023/10/09 01:04:22;;;;;;;8.30;2.08;;;;;;;17.00;53.76;95720.00;5017372;28;20045;-76
2023/10/09 01:06:53;;;;;;;9.57;2.08;;;;;;;17.01;53.93;95745.69;5029924;28;20549;-77
2023/10/09 01:09:20;;;;;;;13.13;2.25;;;;;;;16.80;53.79;95737.25;5018389;28;20037;-75
2023/10/09 01:11:49;;;;;;;12.70;2.30;;;;;;;16.88;53.93;95777.53;5006555;28;20519;-75
2023/10/09 01:14:15;;;;;;;8.13;2.13;;;;;;;16.72;53.78;95740.63;5014860;28;20496;-76
2023/10/09 01:16:42;;;;;;;9.38;2.28;;;;;;;16.36;53.62;95698.47;5024614;28;20033;-75
2023/10/09 01:19:13;;;;;;;12.00;2.25;;;;;;;16.49;53.80;95745.84;4996969;28;20054;-76
2023/10/09 01:21:42;;;;;;;5.43;1.60;;;;;;;16.68;53.89;95782.50;5007655;28;20413;-75
2023/10/09 01:24:11;;;;;;;10.52;2.35;;;;;;;16.50;54.03;95768.06;5011957;28;20516;-76
2023/10/09 01:26:47;;;;;;;10.57;2.05;;;;;;;16.28;53.72;95731.28;5011060;28;20064;-76
2023/10/09 01:29:19;;;;;;;11.38;1.98;;;;;;;16.71;53.91;95806.81;4994647;28;20045;-76
2023/10/09 01:34:18;;;;;;;7.45;2.03;;;;;;;16.59;53.79;95787.72;4993280;28;20522;-76
2023/10/09 01:36:48;;;;;;;8.07;2.30;;;;;;;16.22;53.94;95756.53;4992062;28;20516;-75
2023/10/09 01:39:23;;;;;;;7.60;1.93;;;;;;;16.04;54.47;95774.22;5002541;28;20417;-76
2023/10/09 01:41:58;;;;;;;5.00;1.88;;;;;;;16.00;54.66;95789.28;5000119;28;20470;-78
2023/10/09 01:44:34;;;;;;;13.70;2.25;;;;;;;15.87;54.91;95787.34;5008905;28;20049;-78
2023/10/09 01:47:13;;;;;;;7.35;1.67;;;;;;;15.94;54.90;95787.00;5010333;28;20114;-78
2023/10/09 01:49:43;;;;;;;15.32;2.22;;;;;;;16.08;54.74;95826.09;5002913;28;20073;-78
2023/10/09 01:52:09;;;;;;;7.72;2.90;;;;;;;16.04;54.29;95803.66;4996728;28;20108;-78
2023/10/09 01:54:40;;;;;;;10.13;2.08;;;;;;;16.02;54.02;95816.53;5006391;28;20042;-78
2023/10/09 01:57:14;;;;;;;10.48;1.98;;;;;;;15.97;54.22;95835.34;4990466;28;20068;-78
2023/10/09 01:59:49;;;;;;;3.63;1.60;;;;;;;15.66;54.48;95813.59;5000379;28;20081;-78
2023/10/09 02:04:51;;;;;;;4.35;1.70;;;;;;;15.84;54.58;95825.38;4996424;28;20053;-78
2023/10/09 02:07:22;;;;;;;7.35;1.65;;;;;;;15.62;54.63;95827.84;5020255;28;20132;-78
2023/10/09 02:09:48;;;;;;;6.90;1.67;;;;;;;15.45;54.73;95814.97;4994043;28;20041;-78
2023/10/09 02:12:13;;;;;;;6.68;1.58;;;;;;;15.60;55.09;95854.88;5011080;28;20042;-78
2023/10/09 02:14:41;;;;;;;6.50;1.80;;;;;;;15.27;55.25;95802.38;4993053;28;20038;-78
2023/10/09 02:17:09;;;;;;;6.95;1.80;;;;;;;15.40;55.45;95860.47;5006636;28;20030;-78
2023/10/09 02:19:35;;;;;;;5.03;1.70;;;;;;;15.14;55.99;95825.25;5015068;28;20061;-78
2023/10/09 02:22:12;;;;;;;12.82;2.50;;;;;;;15.37;55.64;95850.34;4999920;28;20045;-78
2023/10/09 02:24:50;;;;;;;5.53;1.73;;;;;;;15.34;55.99;95859.72;5023026;28;20044;-78
2023/10/09 02:30:15;;;;;;;3.05;1.70;;;;;;;15.34;56.19;95874.97;5012321;28;20049;-78
2023/10/09 02:32:44;;;;;;;8.00;1.95;;;;;;;15.40;55.76;95888.00;5004764;28;20036;-78
2023/10/09 02:38:11;;;;;;;7.93;2.13;;;;;;;15.12;55.29;95870.13;4997996;28;20034;-78
2023/10/09 02:40:53;;;;;;;8.18;1.83;;;;;;;15.22;55.65;95899.44;5021139;28;20041;-78
2023/10/09 02:43:19;;;;;;;9.32;2.10;;;;;;;15.02;56.06;95872.94;5013379;28;20034;-78
2023/10/09 02:45:50;;;;;;;10.93;1.60;;;;;;;14.95;55.85;95878.59;5030731;28;20053;-78
2023/10/09 02:48:25;;;;;;;2.80;1.42;;;;;;;14.85;56.31;95864.59;5025344;28;20100;-78
2023/10/09 02:50:50;;;;;;;6.68;1.70;;;;;;;14.73;56.76;95856.94;5009961;28;20071;-78
2023/10/09 02:53:28;;;;;;;6.32;1.35;;;;;;;14.64;56.72;95864.00;5008914;28;20045;-78
2023/10/09 02:56:11;;;;;;;7.30;1.98;;;;;;;14.63;57.11;95863.19;4995471;28;20049;-78
2023/10/09 02:58:37;;;;;;;4.47;1.70;;;;;;;14.77;56.76;95886.56;5017424;28;20432;-78
2023/10/09 03:01:03;;;;;;;7.45;1.83;;;;;;;14.86;56.73;95893.69;5003717;28;20037;-78
2023/10/09 03:03:29;;;;;;;17.08;4.20;;;;;;;15.05;56.54;95907.88;5011793;28;20045;-78
2023/10/09 03:05:54;;;;;;;6.03;1.80;;;;;;;14.85;56.25;95885.94;5021572;28;20041;-78
2023/10/09 03:08:20;;;;;;;7.05;2.35;;;;;;;14.88;56.35;95907.53;5030280;28;20037;-78
2023/10/09 03:10:45;;;;;;;8.30;1.88;;;;;;;14.99;56.30;95908.22;5026688;28;20041;-78
2023/10/09 03:13:11;;;;;;;4.53;1.40;;;;;;;14.84;56.58;95916.41;5009953;28;20141;-78
2023/10/09 03:15:38;;;;;;;4.43;1.63;;;;;;;14.68;56.20;95892.50;5010989;28;20055;-78
2023/10/09 03:18:04;;;;;;;11.10;1.90;;;;;;;14.70;56.51;95899.44;5030232;28;20549;-78
2023/10/09 03:20:31;;;;;;;17.63;2.15;;;;;;;14.73;57.00;95897.00;5030262;28;20124;-78
2023/10/09 03:22:57;;;;;;;8.70;1.63;;;;;;;14.74;56.50;95897.78;5012739;28;20037;-78
2023/10/09 03:25:25;;;;;;;6.15;1.65;;;;;;;14.71;56.48;95883.16;5015278;28;20122;-78
2023/10/09 03:27:52;;;;;;;6.07;1.77;;;;;;;14.83;56.53;95936.16;5012875;28;20045;-78
2023/10/09 03:30:27;;;;;;;7.15;1.63;;;;;;;14.70;56.11;95932.28;5025040;28;20066;-78
2023/10/09 03:32:54;;;;;;;4.85;1.40;;;;;;;14.14;56.24;95886.53;4997261;28;20516;-78
2023/10/09 03:35:27;;;;;;;7.15;2.35;;;;;;;14.43;56.62;95942.63;5019552;28;20033;-78
2023/10/09 03:38:02;;;;;;;7.03;1.40;;;;;;;14.26;57.10;95949.16;5019591;28;20199;-78
2023/10/09 03:40:27;;;;;;;5.65;1.50;;;;;;;13.83;56.97;95907.28;5004588;28;20070;-78
2023/10/09 03:42:53;;;;;;;4.72;1.50;;;;;;;13.68;57.31;95888.69;5006812;28;20494;-78
2023/10/09 03:45:25;;;;;;;10.82;1.90;;;;;;;14.18;56.75;95938.28;5012486;28;20037;-78
2023/10/09 03:48:43;;;;;;;3.42;1.40;;;;;;;14.18;56.54;95916.94;5012373;28;20128;-78
2023/10/09 03:50:43;;;;;;;10.52;2.20;;;;;;;14.24;56.60;95948.63;5002942;28;20045;-78
2023/10/09 03:53:11;;;;;;;7.95;1.80;;;;;;;13.85;56.63;95889.94;5013463;28;20124;-78
2023/10/09 03:55:40;;;;;;;2.70;1.45;;;;;;;14.25;56.72;95960.09;5009582;28;20107;-78
2023/10/09 03:58:06;;;;;;;7.75;1.60;;;;;;;14.14;56.70;95958.56;5021658;28;20037;-78
2023/10/09 04:00:40;;;;;;;4.18;1.40;;;;;;;14.10;56.22;95930.84;5000679;28;20037;-78
2023/10/09 04:03:06;;;;;;;3.88;1.30;;;;;;;13.87;56.60;95927.78;5011630;28;20137;-78
2023/10/09 04:05:32;;;;;;;4.95;1.60;;;;;;;13.97;56.84;95974.91;5011690;28;20048;-78
2023/10/09 04:08:02;;;;;;;5.80;1.25;;;;;;;13.87;56.80;95967.78;5016228;28;20038;-78
2023/10/09 04:10:43;;;;;;;2.83;1.40;;;;;;;13.95;56.70;95969.09;5005688;28;20044;-78
2023/10/09 04:13:11;;;;;;;2.97;1.33;;;;;;;13.68;56.91;95950.81;5027034;28;20069;-78
2023/10/09 04:15:37;;;;;;;3.05;1.20;;;;;;;13.83;57.25;95964.06;5009142;28;20052;-78
2023/10/09 04:18:05;;;;;;;8.98;1.52;;;;;;;13.55;56.72;95915.97;4992249;28;20042;-78
2023/10/09 04:23:04;;;;;;;6.25;1.35;;;;;;;13.67;56.24;95951.06;5014789;28;20041;-78
2023/10/09 04:25:40;;;;;;;2.83;1.10;;;;;;;13.60;56.68;95970.03;4999071;28;20483;-78
2023/10/09 04:28:09;;;;;;;2.92;0.98;;;;;;;13.23;56.68;95919.81;4971359;28;20077;-79
2023/10/09 04:30:46;;;;;;;5.60;1.17;;;;;;;13.30;56.71;95948.81;4986172;28;20328;-79
2023/10/09 04:33:29;;;;;;;4.13;1.38;;;;;;;13.24;56.71;95949.91;4945498;28;20069;-78
2023/10/09 04:36:22;;;;;;;5.28;1.55;;;;;;;13.10;56.37;95929.16;4968896;28;20041;-78
2023/10/09 04:41:33;;;;;;;5.07;1.63;;;;;;;13.56;55.39;95971.66;4983708;28;20516;-78
2023/10/09 04:46:44;;;;;;;5.30;1.60;;;;;;;13.47;54.63;95936.78;5002156;28;20084;-79
2023/10/09 04:49:26;;;;;;;3.45;1.38;;;;;;;13.35;54.74;95948.81;4975873;28;20091;-77
2023/10/09 04:52:07;;;;;;;6.50;1.63;;;;;;;13.44;54.65;95968.50;5000835;28;20727;-77
2023/10/09 04:55:12;;;;;;;4.22;1.30;;;;;;;13.21;55.43;95955.78;4994161;28;20056;-77
2023/10/09 04:57:27;;;;;;;7.10;1.60;;;;;;;12.87;55.48;95913.78;5024762;28;20096;-77
2023/10/09 04:59:58;;;;;;;5.63;1.20;;;;;;;13.22;54.86;95981.34;5015951;28;20042;-77
2023/10/09 05:02:36;;;;;;;1.60;1.10;;;;;;;13.06;55.04;95967.22;5006816;28;20075;-77
2023/10/09 05:05:47;;;;;;;2.65;1.48;;;;;;;13.00;54.40;95962.97;4984005;28;20063;-77
2023/10/09 05:08:18;;;;;;;6.00;1.90;;;;;;;12.65;54.03;95897.31;5003633;28;20099;-78
2023/10/09 05:11:05;;;;;;;2.17;1.20;;;;;;;13.09;53.95;95996.78;4987800;28;20049;-79
2023/10/09 05:16:25;;;;;;;8.52;1.30;;;;;;;13.00;53.90;95995.75;4997196;28;20103;-75
2023/10/09 05:18:59;;;;;;;4.72;1.15;;;;;;;12.91;54.02;95994.69;4992403;28;20037;-75
2023/10/09 05:29:34;;;;;;;3.03;1.40;;;;;;;12.98;53.17;95992.53;5012037;28;20444;-78
2023/10/09 05:32:05;;;;;;;8.10;1.65;;;;;;;13.25;52.57;96002.91;4979112;28;20308;-75
2023/10/09 05:34:36;;;;;;;14.18;2.50;;;;;;;13.37;52.42;96014.06;4987318;28;20216;-78
2023/10/09 05:37:25;;;;;;;4.80;1.58;;;;;;;13.41;51.69;96022.34;4996420;28;20053;-75
2023/10/09 06:03:54;;;;;;;5.63;1.50;;;;;;;12.70;50.80;96020.50;4986010;28;20037;-76
2023/10/09 06:11:49;;;;;;;6.10;1.48;;;;;;;13.19;50.52;96081.25;4990768;28;20045;-77
2023/10/09 06:19:26;;;;;;;6.97;2.00;;;;;;;12.62;50.12;95994.44;4992675;28;21278;-77
2023/10/09 06:29:38;;;;;;;4.80;1.33;;;;;;;13.10;48.57;96054.31;4988146;28;20060;-78
2023/10/09 06:32:23;;;;;;;4.60;2.00;;;;;;;13.35;48.61;96074.81;4978286;28;20087;-77
2023/10/09 06:46:37;;;;;;;10.38;2.00;;;;;;;13.29;46.91;96065.22;4999368;28;20037;-77
2023/10/09 06:48:45;;;;;;;4.55;1.35;;;;;;;13.29;46.37;96083.88;5016658;28;20076;-78
2023/10/09 06:58:54;;;;;;;1.58;1.10;;;;;;;13.81;45.51;96106.69;5012786;28;20121;-75
2023/10/09 07:01:30;;;;;;;8.05;1.58;;;;;;;13.86;45.78;96104.03;4994958;28;20037;-75
2023/10/09 07:17:44;;;;;;;7.78;2.40;;;;;;;13.55;44.43;96083.84;5012005;28;20053;-76
2023/10/09 07:24:57;;;;;;;8.98;1.58;;;;;;;13.20;44.41;96018.91;4999489;28;20053;-75
2023/10/09 07:38:28;;;;;;;5.35;1.45;;;;;;;13.89;43.06;96082.94;5009221;28;20037;-76
2023/10/09 07:41:44;;;;;;;6.32;1.65;;;;;;;14.06;43.01;96111.97;4996165;28;20761;-77
2023/10/09 07:46:30;;;;;;;7.25;1.63;;;;;;;13.98;41.51;96093.06;4998623;28;20038;-76
2023/10/09 07:49:21;;;;;;;7.95;1.60;;;;;;;14.25;41.81;96109.50;5008502;28;20519;-74
2023/10/09 07:51:46;;;;;;;3.95;1.50;;;;;;;14.22;41.58;96105.50;4988704;28;20092;-75
2023/10/09 07:54:15;;;;;;;4.32;1.60;;;;;;;14.08;41.58;96103.69;4987039;28;20057;-77
2023/10/09 07:56:45;;;;;;;3.15;1.30;;;;;;;14.28;41.64;96103.59;5012147;28;20119;-76
2023/10/09 07:59:11;;;;;;;5.75;1.30;;;;;;;14.19;41.80;96090.03;5013897;28;20099;-76
2023/10/09 08:01:52;;;;;;;4.75;1.45;;;;;;;14.27;40.92;96104.66;5012086;28;20466;-77
2023/10/09 08:04:37;;;;;;;6.35;1.30;;;;;;;14.32;41.12;96110.00;4976056;28;20064;-76
2023/10/09 08:07:34;;;;;;;3.80;1.60;;;;;;;14.35;40.37;96106.75;4991335;28;20499;-77
2023/10/09 08:17:53;;;;;;;7.30;2.03;;;;;;;14.34;37.95;96083.06;4989977;28;20228;-76
2023/10/09 08:20:25;;;;;;;5.72;1.88;;;;;;;14.53;38.22;96087.50;4992118;28;20274;-77
2023/10/09 08:22:58;;;;;;;7.07;1.80;;;;;;;14.44;38.38;96053.66;4983256;28;20042;-77
2023/10/09 08:25:36;;;;;;;7.13;1.40;;;;;;;14.44;37.97;96065.13;5006506;28;20084;-75
2023/10/09 08:36:01;;;;;;;;;;;;;;;14.76;38.40;96087.88;5010008;28;20432;-76
2023/10/09 08:38:30;;;;;;;2.00;1.30;;;;;;;14.41;38.41;96064.88;4995543;28;19925;-75
2023/10/09 08:40:58;;;;;;;4.97;1.60;;;;;;;14.48;38.50;96052.84;5012848;28;20558;-76
2023/10/09 08:43:23;;;;;;;5.43;1.33;;;;;;;14.52;38.22;96061.06;5009292;28;20045;-77
2023/10/09 08:46:00;;;;;;;8.25;3.58;;;;;;;14.27;38.90;96000.63;4980529;28;20059;-77
2023/10/09 08:48:27;;;;;;;1.98;1.27;;;;;;;14.82;38.63;96060.06;4985505;28;20133;-76
2023/10/09 08:50:55;;;;;;;3.08;1.23;;;;;;;14.69;38.39;96056.16;4982439;28;20050;-76
2023/10/09 08:53:21;;;;;;;7.75;1.42;;;;;;;14.84;38.59;96063.28;4966022;28;20355;-75
2023/10/09 08:55:47;;;;;;;10.18;1.48;;;;;;;14.73;37.68;96029.69;4985924;28;20049;-76
2023/10/09 08:58:20;;;;;;;5.65;1.60;;;;;;;15.00;37.80;96056.75;5002446;28;20378;-78
2023/10/09 09:00:47;;;;;;;3.53;1.40;;;;;;;15.09;36.87;96068.41;4987612;28;20041;-76
2023/10/09 09:03:17;;;;;;;7.40;1.92;;;;;;;14.90;37.11;96028.22;4994885;28;20049;-78
2023/10/09 09:05:51;;;;;;;4.00;1.55;;;;;;;15.08;36.26;96050.78;4990427;28;20038;-79
2023/10/09 09:08:25;;;;;;;2.40;1.52;;;;;;;14.54;36.90;95936.94;5008199;28;20160;-78
2023/10/09 09:11:23;;;;;;;17.23;2.03;;;;;;;15.20;35.02;96024.50;4986986;28;20045;-77
2023/10/09 09:14:18;;;;;;;6.47;1.55;;;;;;;15.41;35.87;96067.84;4971935;28;20144;-76
2023/10/09 09:16:48;;;;;;;3.72;1.13;;;;;;;15.40;35.79;96061.72;4990948;28;20532;-80
2023/10/09 09:19:20;;;;;;;7.57;1.48;;;;;;;15.48;35.44;96044.28;4993450;28;20081;-73
2023/10/09 09:21:59;;;;;;;6.82;1.40;;;;;;;15.58;34.02;96070.91;4996693;28;20113;-76
2023/10/09 09:27:09;;;;;;;4.40;1.42;;;;;;;15.43;34.66;96039.75;5011517;28;20045;-75
2023/10/09 09:29:36;;;;;;;11.55;1.35;;;;;;;15.59;34.78;96053.00;5005144;28;20504;-77
2023/10/09 09:32:18;;;;;;;3.15;1.67;;;;;;;15.56;34.46;96061.59;5003890;28;20082;-75
2023/10/09 09:34:54;;;;;;;;;;;;;;;15.64;34.14;96037.69;5013159;28;20089;-78
2023/10/09 09:38:04;;;;;;;14.15;1.90;;;;;;;15.43;34.21;96014.91;5005194;28;20414;-76
2023/10/09 09:40:29;;;;;;;3.95;1.63;;;;;;;15.15;34.22;95949.72;5011816;28;20577;-76
2023/10/09 09:43:11;;;;;;;8.30;1.95;;;;;;;15.77;33.41;96036.22;5016752;28;20064;-75
2023/10/09 09:45:38;;;;;;;6.93;1.50;;;;;;;15.89;32.92;96027.78;5004879;28;20440;-74
2023/10/09 09:48:10;;;;;;;8.13;1.30;;;;;;;15.92;31.79;96027.22;4980811;28;20117;-75
2023/10/09 09:50:44;;;;;;;6.93;1.83;;;;;;;16.60;31.39;96038.34;5008903;28;20128;-77
2023/10/09 09:53:17;;;;;;;11.27;1.65;;;;;;;17.20;30.27;96015.19;5000950;28;20041;-76
2023/10/09 09:55:55;;;;;;;9.82;1.70;;;;;;;17.89;29.44;96040.22;5014455;28;20448;-76
2023/10/09 09:58:23;;;;;;;7.22;1.58;;;;;;;18.47;28.47;96007.31;5009082;28;20425;-75
2023/10/09 10:00:55;;;;;;;5.53;1.73;;;;;;;19.21;27.59;96021.16;4998201;28;20076;-75
2023/10/09 10:03:33;;;;;;;3.33;1.63;;;;;;;19.72;26.15;95993.75;5007674;28;20161;-76
2023/10/09 10:06:09;;;;;;;4.75;1.20;;;;;;;20.32;25.42;95966.94;5015272;28;20105;-77
2023/10/09 10:08:38;;;;;;;13.63;1.80;;;;;;;21.35;24.53;95989.59;5003224;28;20187;-79
2023/10/09 10:11:06;;;;;;;6.22;1.35;;;;;;;22.12;24.26;95986.56;5010164;28;20225;-77
2023/10/09 10:13:41;;;;;;;5.00;1.15;;;;;;;21.99;24.19;95978.69;4997342;28;20041;-77
2023/10/09 10:16:19;;;;;;;7.10;1.83;;;;;;;22.05;24.20;95964.66;5001767;28;20049;-77
2023/10/09 10:21:53;;;;;;;7.32;1.45;;;;;;;22.78;22.47;95938.06;5005545;28;20049;-79
2023/10/09 10:27:28;;;;;;;10.60;1.40;;;;;;;22.89;22.30;95966.25;5003940;28;20059;-76
2023/10/09 10:30:18;;;;;;;4.03;1.55;;;;;;;23.03;21.60;95953.25;5008849;28;20128;-78
2023/10/09 10:32:57;;;;;;;4.18;1.48;;;;;;;23.11;21.37;95916.41;4993941;28;20033;-78
2023/10/09 10:35:36;;;;;;;5.82;2.28;;;;;;;23.37;20.96;95916.09;5006269;28;20271;-78
2023/10/09 10:38:11;;;;;;;3.03;1.88;;;;;;;23.23;21.57;95924.56;5004623;28;20045;-76
2023/10/09 10:40:46;;;;;;;2.97;1.88;;;;;;;23.08;22.43;95893.53;4991803;28;20292;-78
2023/10/09 10:46:52;;;;;;;7.05;1.90;;;;;;;23.22;22.01;95893.19;5015407;28;20103;-78
2023/10/09 10:51:40;;;;;;;4.32;2.03;;;;;;;22.97;21.81;95899.69;4987630;28;20436;-79
2023/10/09 10:56:51;;;;;;;3.65;2.10;;;;;;;23.19;22.02;95891.16;5009094;28;20041;-77
2023/10/09 10:59:23;;;;;;;3.88;2.17;;;;;;;22.43;21.88;95818.63;4997510;28;20069;-77
2023/10/09 11:07:24;;;;;;;5.13;1.70;;;;;;;23.18;21.56;95853.63;5006642;28;20049;-80
2023/10/09 11:16:14;;;;;;;5.53;1.92;;;;;;;23.73;21.44;95872.03;4991622;28;20041;-79
2023/10/09 11:18:42;;;;;;;8.45;3.25;;;;;;;24.20;21.06;95856.03;4985569;28;20914;-79
2023/10/09 11:28:57;;;;;;;14.35;6.38;;;;;;;23.71;21.33;95820.13;4993815;28;20053;-79
2023/10/09 11:31:23;;;;;;;11.80;5.72;;;;;;;23.96;21.62;95810.00;4987627;28;20045;-79
2023/10/09 11:33:53;;;;;;;7.55;3.42;;;;;;;23.61;21.22;95805.16;4989685;28;20124;-79
2023/10/09 11:36:32;;;;;;;11.63;3.03;;;;;;;23.55;21.53;95822.75;4984004;28;20200;-79
2023/10/09 11:39:14;;;;;;;11.52;2.67;;;;;;;23.97;21.36;95834.06;5010953;28;20526;-79
2023/10/09 11:41:44;;;;;;;6.43;2.70;;;;;;;24.11;21.34;95820.13;5001828;28;20038;-79
2023/10/09 11:44:33;;;;;;;5.30;2.70;;;;;;;23.67;21.15;95821.94;4996459;28;20053;-79
2023/10/09 11:54:58;;;;;;;5.57;2.70;;;;;;;24.15;20.83;95786.59;5012473;28;20049;-79
2023/10/09 11:57:31;;;;;;;3.75;2.20;;;;;;;24.46;20.81;95785.91;5005046;28;20047;-77
2023/10/09 12:00:10;;;;;;;6.32;1.73;;;;;;;24.16;20.75;95806.34;4992499;28;20068;-79
2023/10/09 12:02:43;;;;;;;7.47;2.95;;;;;;;24.15;20.84;95794.72;4987331;28;20049;-80
2023/10/09 12:05:16;;;;;;;9.88;3.00;;;;;;;23.98;21.39;95776.03;5009202;28;20726;-78
2023/10/09 12:07:43;;;;;;;6.88;3.17;;;;;;;23.95;21.19;95770.53;5010160;28;20644;-81
2023/10/09 12:10:10;;;;;;;8.25;2.08;;;;;;;23.71;21.68;95780.31;4999715;28;20037;-77
2023/10/09 12:12:35;;;;;;;7.70;2.92;;;;;;;23.28;22.03;95761.16;5011486;28;20038;-78
2023/10/09 12:15:05;;;;;;;8.32;3.15;;;;;;;23.44;22.21;95781.78;4989794;28;20495;-77
2023/10/09 12:17:30;;;;;;;3.25;2.30;;;;;;;23.62;21.78;95762.63;4999208;28;20049;-78
2023/10/09 12:19:56;;;;;;;4.45;2.25;;;;;;;23.93;21.35;95765.47;5012804;28;20194;-78
2023/10/09 12:22:22;;;;;;;6.03;2.28;;;;;;;23.80;21.07;95729.47;5004679;28;20428;-78
2023/10/09 12:24:47;;;;;;;4.88;2.70;;;;;;;24.30;20.84;95749.06;4990098;28;20050;-80
2023/10/09 12:27:13;;;;;;;5.35;1.58;;;;;;;24.40;20.89;95735.00;4987842;28;20041;-78
2023/10/09 12:29:44;;;;;;;7.63;2.10;;;;;;;24.49;20.56;95730.97;4985079;28;20147;-78
2023/10/09 12:32:11;;;;;;;7.18;1.65;;;;;;;24.42;20.48;95749.78;5007865;28;20048;-78
2023/10/09 12:34:38;;;;;;;6.22;1.67;;;;;;;24.57;20.27;95746.28;5014719;28;20037;-78
2023/10/09 12:37:04;;;;;;;2.47;1.50;;;;;;;24.59;20.28;95744.03;5004861;28;20041;-78
2023/10/09 12:39:33;;;;;;;3.10;1.45;;;;;;;24.17;20.26;95716.59;5008390;28;20520;-78
2023/10/09 12:42:06;;;;;;;6.65;1.50;;;;;;;24.27;20.54;95728.06;5012397;28;20453;-78
2023/10/09 12:44:39;;;;;;;3.80;1.52;;;;;;;24.04;20.64;95711.56;5011963;28;20761;-78
2023/10/09 12:47:11;;;;;;;3.42;1.58;;;;;;;24.44;20.20;95728.53;5016043;28;20111;-78
2023/10/09 12:49:40;;;;;;;8.15;1.67;;;;;;;24.64;20.08;95713.16;4996599;28;20064;-78
2023/10/09 12:52:15;;;;;;;3.53;1.98;;;;;;;24.68;20.00;95696.97;5009432;28;20817;-77
2023/10/09 12:54:46;;;;;;;5.53;1.60;;;;;;;24.94;19.47;95700.75;4986030;28;20049;-76
2023/10/09 12:57:13;;;;;;;8.77;2.20;;;;;;;25.05;19.38;95692.06;4999745;28;20045;-76
2023/10/09 12:59:45;;;;;;;5.25;1.48;;;;;;;25.55;19.20;95696.66;5007765;28;20132;-76
2023/10/09 13:02:30;;;;;;;10.68;1.92;;;;;;;25.80;19.10;95691.72;5006787;28;20120;-78
2023/10/09 13:05:05;;;;;;;6.45;1.67;;;;;;;26.43;19.01;95701.13;5011773;28;20069;-78
2023/10/09 13:07:31;;;;;;;5.65;1.38;;;;;;;25.18;18.93;95644.66;4995195;28;20140;-77
2023/10/09 13:10:08;;;;;;;3.42;1.40;;;;;;;25.33;18.78;95698.88;4988951;28;20539;-77
2023/10/09 13:12:40;;;;;;;4.38;1.30;;;;;;;24.96;19.43;95686.81;4995097;28;20045;-77
2023/10/09 13:15:10;;;;;;;3.97;2.00;;;;;;;24.76;19.41;95666.97;4991215;28;20053;-78
2023/10/09 13:17:39;;;;;;;2.58;1.63;;;;;;;24.52;19.55;95678.78;4987348;28;20041;-77
2023/10/09 13:20:15;;;;;;;4.13;1.38;;;;;;;24.60;19.38;95683.25;4995108;28;20062;-78
2023/10/09 13:22:42;;;;;;;5.00;1.73;;;;;;;25.12;19.05;95670.50;5013056;28;20064;-77
2023/10/09 13:25:24;;;;;;;3.13;1.60;;;;;;;25.50;18.93;95675.19;5000234;28;20474;-78
2023/10/09 13:27:50;;;;;;;13.65;3.13;;;;;;;25.40;18.55;95667.63;4995463;28;20054;-78
2023/10/09 13:30:21;;;;;;;4.50;1.50;;;;;;;24.48;18.83;95655.44;5014484;28;20038;-79
2023/10/09 13:32:50;;;;;;;5.95;1.70;;;;;;;24.66;18.99;95666.69;5011691;28;20475;-80
2023/10/09 13:35:19;;;;;;;8.18;2.55;;;;;;;24.75;18.64;95640.19;4996268;28;20483;-79
2023/10/09 13:37:53;;;;;;;7.57;1.88;;;;;;;24.94;18.37;95670.13;4996246;28;20579;-78
2023/10/09 13:40:29;;;;;;;2.28;1.48;;;;;;;25.16;17.68;95661.31;4986891;28;20170;-78
2023/10/09 13:43:01;;;;;;;7.55;1.92;;;;;;;24.80;18.01;95624.41;4988937;28;20049;-80
2023/10/09 13:45:28;;;;;;;6.65;1.63;;;;;;;24.68;18.06;95651.66;5015490;28;20056;-79
2023/10/09 13:47:57;;;;;;;8.43;2.03;;;;;;;24.43;18.25;95636.69;4993350;28;20540;-79
2023/10/09 13:50:32;;;;;;;4.65;1.90;;;;;;;24.72;18.08;95655.22;4999903;28;20130;-80
2023/10/09 13:53:01;;;;;;;5.82;1.50;;;;;;;24.32;18.09;95616.69;5002568;28;20041;-78
2023/10/09 13:55:43;;;;;;;4.53;1.98;;;;;;;24.06;18.38;95620.66;4988451;28;20045;-78
2023/10/09 13:58:13;;;;;;;7.32;2.25;;;;;;;24.19;18.63;95643.06;5008493;28;20552;-78
2023/10/09 14:00:42;;;;;;;6.95;1.90;;;;;;;24.40;18.76;95634.72;4991799;28;21273;-78
2023/10/09 14:03:14;;;;;;;5.32;1.88;;;;;;;24.74;18.73;95633.97;4986827;28;20508;-78
2023/10/09 14:05:54;;;;;;;4.80;1.80;;;;;;;24.84;18.33;95633.44;5000355;28;20100;-77
2023/10/09 14:08:22;;;;;;;7.15;1.92;;;;;;;24.58;18.61;95639.41;4992033;28;20041;-78
2023/10/09 14:10:48;;;;;;;4.43;2.08;;;;;;;24.54;19.09;95624.19;5007709;28;20034;-79
2023/10/09 14:13:17;;;;;;;4.63;2.20;;;;;;;24.44;19.00;95614.69;4999378;28;20041;-78
2023/10/09 14:15:45;;;;;;;5.93;2.83;;;;;;;24.43;18.79;95620.44;5000228;28;20431;-78
2023/10/09 14:18:11;;;;;;;7.07;2.90;;;;;;;24.20;19.07;95607.50;4990713;28;20077;-79
2023/10/09 14:20:41;;;;;;;14.13;2.65;;;;;;;24.40;19.19;95630.06;5011858;28;20088;-79
2023/10/09 14:23:07;;;;;;;4.53;2.17;;;;;;;24.30;19.26;95619.75;5010476;28;20053;-78
2023/10/09 14:25:39;;;;;;;6.32;2.13;;;;;;;24.28;19.21;95618.53;5013714;28;20034;-78
2023/10/09 14:28:09;;;;;;;7.82;2.40;;;;;;;24.44;19.47;95617.38;5014549;28;20130;-78
2023/10/09 14:30:42;;;;;;;8.25;2.28;;;;;;;24.01;19.52;95561.34;4998132;28;20697;-79
2023/10/09 14:33:12;;;;;;;4.47;2.20;;;;;;;24.28;19.09;95600.34;4979227;28;20052;-79
2023/10/09 14:35:41;;;;;;;9.18;2.40;;;;;;;23.92;19.34;95551.81;5010439;28;20045;-80
2023/10/09 14:38:19;;;;;;;8.68;2.10;;;;;;;23.80;19.84;95613.03;5015494;28;20065;-78
2023/10/09 14:40:45;;;;;;;10.77;2.30;;;;;;;23.69;20.12;95603.06;5016262;28;20626;-78
2023/10/09 14:43:20;;;;;;;9.32;2.65;;;;;;;23.23;20.42;95631.53;4991390;28;20045;-79
2023/10/09 14:45:49;;;;;;;24.25;2.80;;;;;;;22.99;20.41;95602.63;4999635;28;20382;-80
2023/10/09 14:48:26;;;;;;;12.45;3.08;;;;;;;23.06;20.77;95617.13;4997600;28;20812;-80
2023/10/09 14:51:04;;;;;;;12.95;2.30;;;;;;;22.89;21.01;95594.97;5011055;28;20531;-79
2023/10/09 14:53:30;;;;;;;9.60;2.42;;;;;;;23.08;20.64;95595.94;5013150;28;20048;-78
2023/10/09 14:56:03;;;;;;;15.07;2.78;;;;;;;22.65;20.55;95529.00;5011844;28;20440;-79
2023/10/09 14:58:30;;;;;;;13.25;3.83;;;;;;;22.84;20.34;95571.66;4989811;28;20370;-80
2023/10/09 15:00:56;;;;;;;10.35;3.00;;;;;;;22.55;20.92;95582.72;4990495;28;20391;-80
2023/10/09 15:03:22;;;;;;;26.08;4.75;;;;;;;22.45;20.81;95600.19;5011750;28;20048;-79